Time;durP1;ratioP1;P1;durP2;ratioP2;P2;SDS_P1;SDS_P2;PMS_P1;PMS_P2;Temp;Humidity;BMP_temperature;BMP_pressure;BME280_temperature;BME280_humidity;BME280_pressure;Samples;Min_cycle;Max_cycle;Signal;HPM_P1;HPM_P2
2022/09/09 00:00:15;;;;;;;10.40;8.63;;;18.40;82.30;;;20.97;60.94;100723.94;5070749;28;20716;-60
2022/09/09 00:02:54;;;;;;;8.40;7.70;;;18.40;82.60;;;20.97;60.77;100719.38;5070342;28;20224;-60
2022/09/09 00:05:33;;;;;;;11.83;10.63;;;18.40;82.60;;;20.96;61.53;100720.47;5070676;28;20311;-59
2022/09/09 00:08:06;;;;;;;13.77;12.40;;;18.40;83.00;;;20.94;61.23;100719.88;5070761;28;20246;-59
2022/09/09 00:10:40;;;;;;;13.57;12.37;;;18.40;82.90;;;20.87;61.94;100719.25;5070453;28;20205;-60
2022/09/09 00:13:23;;;;;;;15.10;13.50;;;18.40;83.00;;;20.81;61.68;100721.00;5070572;28;20209;-59
2022/09/09 00:16:03;;;;;;;13.43;12.00;;;18.40;83.20;;;20.78;62.15;100713.47;5071200;28;20173;-61
2022/09/09 00:18:41;;;;;;;12.93;11.80;;;18.40;83.40;;;20.76;62.45;100717.44;5070629;28;20212;-62
2022/09/09 00:21:18;;;;;;;14.20;12.37;;;18.30;83.40;;;20.74;62.10;100714.19;5070447;28;20243;-60
2022/09/09 00:23:51;;;;;;;14.90;11.73;;;18.30;83.60;;;20.72;62.15;100714.44;5070785;28;20673;-58
2022/09/09 00:26:32;;;;;;;13.70;12.40;;;18.30;83.80;;;20.69;62.25;100706.06;5070569;28;20193;-60
2022/09/09 00:29:14;;;;;;;14.20;12.90;;;18.30;83.90;;;20.64;62.76;100714.00;5070815;28;20680;-59
2022/09/09 00:31:42;;;;;;;13.93;12.67;;;18.30;84.00;;;20.66;62.38;100711.88;5070563;28;20231;-59
2022/09/09 00:34:16;;;;;;;13.50;12.30;;;18.20;83.90;;;20.65;62.91;100704.94;5086657;28;20193;-61
2022/09/09 00:36:49;;;;;;;15.43;13.83;;;18.20;84.10;;;20.64;62.54;100708.66;5070635;28;20218;-59
2022/09/09 00:39:29;;;;;;;14.90;13.47;;;18.20;84.00;;;20.61;62.82;100714.50;5070326;28;20209;-60
2022/09/09 00:42:14;;;;;;;14.33;12.97;;;18.20;84.10;;;20.54;62.91;100713.84;5070266;28;20209;-58
2022/09/09 00:44:57;;;;;;;14.10;12.70;;;18.20;84.10;;;20.53;62.75;100712.22;5072663;28;20194;-59
2022/09/09 00:47:45;;;;;;;15.17;13.57;;;18.10;84.00;;;20.50;62.64;100718.03;5074249;28;20216;-59
2022/09/09 00:50:34;;;;;;;15.87;14.37;;;18.10;84.00;;;20.45;62.77;100716.06;5074134;28;20794;-57
2022/09/09 00:53:31;;;;;;;15.47;13.90;;;18.10;84.10;;;20.41;63.00;100714.13;5074007;28;20224;-59
2022/09/09 00:56:13;;;;;;;15.13;13.57;;;18.10;84.20;;;20.40;62.59;100717.84;5073917;28;20181;-61
2022/09/09 00:58:50;;;;;;;14.93;13.43;;;18.10;84.20;;;20.41;62.63;100716.78;5073934;28;20189;-60
2022/09/09 01:01:17;;;;;;;15.43;13.07;;;18.00;84.90;;;20.42;62.77;100721.09;5073506;28;20201;-59
2022/09/09 01:03:53;;;;;;;14.43;13.13;;;18.00;84.10;;;20.40;62.65;100723.19;5073954;28;20217;-56
2022/09/09 01:06:29;;;;;;;13.20;11.73;;;18.00;84.20;;;20.40;62.48;100712.47;5073816;28;20213;-59
2022/09/09 01:09:19;;;;;;;15.13;13.60;;;18.00;84.20;;;20.33;62.73;100715.31;5073913;28;20649;-58
2022/09/09 01:11:56;;;;;;;14.63;13.23;;;18.00;84.10;;;20.37;62.97;100713.81;5073751;28;20616;-56
2022/09/09 01:14:42;;;;;;;13.83;12.43;;;17.90;84.10;;;20.39;62.42;100724.25;5073892;28;20197;-56
2022/09/09 01:17:17;;;;;;;12.53;11.43;;;17.90;84.10;;;20.42;62.56;100721.09;5073685;28;20238;-59
2022/09/09 01:20:01;;;;;;;13.33;12.13;;;17.90;83.90;;;20.39;62.75;100718.91;5073696;28;20246;-56
2022/09/09 01:22:37;;;;;;;13.03;11.83;;;17.90;84.00;;;20.37;62.73;100712.97;5073246;28;20623;-59
2022/09/09 01:25:28;;;;;;;12.57;11.47;;;17.90;83.90;;;20.31;62.73;100714.75;5073571;28;20230;-57
2022/09/09 01:28:03;;;;;;;12.33;11.20;;;17.90;83.90;;;20.34;62.66;100710.78;5073489;28;20235;-58
2022/09/09 01:30:41;;;;;;;13.20;11.90;;;17.90;83.80;;;20.32;62.31;100711.03;5073314;28;20173;-59
2022/09/09 01:33:15;;;;;;;12.93;11.73;;;17.90;84.50;;;20.34;61.92;100708.09;5073560;28;20750;-57
2022/09/09 01:35:50;;;;;;;12.70;11.50;;;17.90;83.70;;;20.32;61.87;100710.22;5073463;28;20235;-57
2022/09/09 01:38:18;;;;;;;10.93;9.93;;;17.80;83.60;;;20.32;62.46;100699.53;5073267;28;20189;-57
2022/09/09 01:40:46;;;;;;;12.67;11.40;;;17.80;83.50;;;20.34;62.07;100705.44;5073141;28;20268;-56
2022/09/09 01:43:15;;;;;;;12.20;10.90;;;17.80;83.70;;;20.33;61.73;100701.13;5073169;28;20255;-59
2022/09/09 01:45:46;;;;;;;11.30;10.30;;;17.80;83.50;;;20.33;62.13;100698.44;5073057;28;20189;-59
2022/09/09 01:48:14;;;;;;;11.27;10.27;;;17.80;83.30;;;20.30;61.95;100686.38;5073199;28;20707;-58
2022/09/09 01:50:41;;;;;;;9.87;8.97;;;17.80;83.10;;;20.29;61.59;100684.75;5072786;28;20239;-59
2022/09/09 01:53:09;;;;;;;11.53;10.33;;;17.80;83.10;;;20.29;62.07;100683.94;5073042;28;20274;-59
2022/09/09 01:55:41;;;;;;;12.43;11.23;;;17.80;83.10;;;20.25;61.98;100695.09;5072659;28;20189;-59
2022/09/09 01:58:31;;;;;;;10.43;9.50;;;17.70;83.10;;;20.21;61.44;100699.28;5073024;28;20197;-61
2022/09/09 02:01:11;;;;;;;11.07;9.93;;;17.70;83.10;;;20.25;61.26;100695.09;5072490;28;20193;-61
2022/09/09 02:03:47;;;;;;;12.73;11.50;;;17.70;83.10;;;20.25;61.43;100692.44;5072972;28;20243;-59
2022/09/09 02:06:27;;;;;;;10.70;9.77;;;17.70;82.90;;;20.21;61.67;100685.09;5073067;28;20296;-60
2022/09/09 02:08:59;;;;;;;11.07;9.73;;;17.70;82.80;;;20.23;61.70;100681.19;5073123;28;20185;-61
2022/09/09 02:11:28;;;;;;;9.83;8.90;;;17.70;82.70;;;20.27;61.70;100680.72;5072751;28;20197;-59
2022/09/09 02:14:05;;;;;;;8.90;8.10;;;17.70;83.00;;;20.30;61.34;100675.69;5088497;28;20627;-61
2022/09/09 02:16:40;;;;;;;9.27;8.40;;;17.70;83.20;;;20.36;61.18;100689.97;5072794;28;20256;-59
2022/09/09 02:19:15;;;;;;;9.43;8.60;;;17.70;83.20;;;20.38;60.84;100688.66;5072809;28;20188;-58
2022/09/09 02:21:46;;;;;;;10.80;9.57;;;17.80;82.90;;;20.38;60.87;100693.19;5072303;28;20230;-58
2022/09/09 02:24:15;;;;;;;10.83;9.73;;;17.80;82.40;;;20.31;60.90;100682.66;5072575;28;20193;-59
2022/09/09 02:26:49;;;;;;;8.70;7.90;;;17.80;82.10;;;20.29;61.14;100684.75;5072226;28;20274;-60
2022/09/09 02:29:23;;;;;;;10.30;9.40;;;17.70;82.30;;;20.27;60.58;100686.88;5072384;28;20219;-59
2022/09/09 02:31:54;;;;;;;7.23;6.63;;;17.70;82.10;;;20.28;60.99;100687.69;5071789;28;20213;-58
2022/09/09 02:34:25;;;;;;;9.43;8.63;;;17.70;82.40;;;20.29;60.33;100700.00;5072289;28;20231;-59
2022/09/09 02:36:57;;;;;;;12.80;9.37;;;17.70;82.00;;;20.20;60.63;100686.16;5072323;28;20604;-57
2022/09/09 02:39:24;;;;;;;9.73;8.37;;;17.70;81.80;;;20.14;61.00;100693.28;5072277;28;20211;-58
2022/09/09 02:41:52;;;;;;;10.80;9.60;;;17.60;81.60;;;20.05;60.78;100689.34;5070753;28;20260;-59
2022/09/09 02:44:21;;;;;;;10.17;9.17;;;17.60;81.70;;;20.00;61.07;100686.59;5072071;28;20267;-60
2022/09/09 02:47:24;;;;;;;9.33;8.20;;;17.50;81.60;;;19.91;61.38;100676.50;5072043;28;20209;-61
2022/09/09 02:50:06;;;;;;;8.63;7.30;;;17.50;81.90;;;19.93;61.08;100680.56;5071864;28;20189;-60
2022/09/09 02:52:51;;;;;;;8.77;7.97;;;17.50;82.30;;;19.94;61.20;100668.84;5071517;28;20275;-59
2022/09/09 02:55:29;;;;;;;9.60;8.63;;;17.50;82.10;;;19.93;60.90;100675.22;5071744;28;20189;-59
2022/09/09 02:57:59;;;;;;;8.03;7.23;;;17.50;82.00;;;19.92;61.24;100676.25;5071762;28;20581;-59
2022/09/09 03:00:28;;;;;;;9.37;7.70;;;17.40;81.90;;;19.92;61.04;100684.28;5071214;28;20224;-59
2022/09/09 03:02:56;;;;;;;8.57;7.67;;;17.40;82.00;;;19.86;60.69;100679.88;5071514;28;20220;-60
2022/09/09 03:05:25;;;;;;;8.33;7.60;;;17.40;81.90;;;19.78;60.94;100674.13;5071559;28;20259;-59
2022/09/09 03:07:52;;;;;;;8.13;7.40;;;17.30;81.80;;;19.72;60.91;100683.88;5070729;28;20209;-60
2022/09/09 03:10:20;;;;;;;8.33;7.63;;;17.30;81.90;;;19.68;61.01;100685.41;5071820;28;20197;-59
2022/09/09 03:12:47;;;;;;;9.30;7.40;;;17.30;82.00;;;19.64;61.45;100684.22;5070728;28;20229;-59
2022/09/09 03:15:15;;;;;;;7.70;6.90;;;17.20;82.00;;;19.62;61.12;100683.66;5071809;28;20197;-58
2022/09/09 03:17:43;;;;;;;11.93;8.03;;;17.20;82.10;;;19.61;61.32;100686.56;5071637;28;20192;-57
2022/09/09 03:20:12;;;;;;;8.10;7.00;;;17.20;82.20;;;19.62;61.47;100685.50;5087016;28;20196;-58
2022/09/09 03:22:40;;;;;;;7.90;7.10;;;17.10;82.30;;;19.63;61.63;100690.63;5070903;28;20205;-57
2022/09/09 03:25:08;;;;;;;8.73;7.13;;;17.10;83.10;;;19.60;61.59;100691.09;5071409;28;20658;-60
2022/09/09 03:27:35;;;;;;;7.60;6.97;;;17.10;82.40;;;19.62;61.52;100699.69;5071207;28;20224;-60
2022/09/09 03:30:03;;;;;;;7.63;7.00;;;17.10;82.40;;;19.62;61.70;100699.69;5071564;28;20193;-59
2022/09/09 03:32:31;;;;;;;8.13;7.33;;;17.10;82.60;;;19.63;61.47;100700.50;5070832;28;20213;-63
2022/09/09 03:34:59;;;;;;;8.13;7.00;;;17.10;82.60;;;19.64;61.49;100705.59;5071382;28;20243;-59
2022/09/09 03:37:27;;;;;;;9.30;6.33;;;17.10;82.60;;;19.67;61.25;100702.47;5071998;28;20209;-59
2022/09/09 03:39:54;;;;;;;10.03;7.17;;;17.10;82.60;;;19.69;61.40;100704.88;5072247;28;20654;-60
2022/09/09 03:42:21;;;;;;;8.67;6.77;;;17.10;82.40;;;19.67;61.18;100707.81;5072363;28;20209;-62
2022/09/09 03:44:50;;;;;;;8.63;6.50;;;17.10;82.30;;;19.67;61.54;100702.47;5087327;28;20234;-59
2022/09/09 03:47:18;;;;;;;10.50;6.23;;;17.10;82.30;;;19.71;60.97;100706.28;5071305;28;20239;-58
2022/09/09 03:49:46;;;;;;;7.20;6.30;;;17.20;82.30;;;19.71;60.82;100703.59;5071280;28;20193;-58
2022/09/09 03:52:16;;;;;;;7.50;6.70;;;17.20;82.30;;;19.71;60.82;100703.59;5070978;28;20213;-56
2022/09/09 03:54:52;;;;;;;6.47;5.87;;;17.20;82.20;;;19.71;61.33;100698.25;5071285;28;20212;-58
2022/09/09 03:57:21;;;;;;;7.50;6.30;;;17.20;82.20;;;19.74;61.07;100702.31;5071158;28;20174;-58
2022/09/09 03:59:48;;;;;;;7.17;5.73;;;17.20;82.30;;;19.73;60.88;100701.50;5071074;28;20227;-59
2022/09/09 04:02:16;;;;;;;6.67;5.77;;;17.20;82.20;;;19.73;61.13;100696.16;5070701;28;20247;-60
2022/09/09 04:04:43;;;;;;;8.77;5.97;;;17.20;82.10;;;19.75;61.28;100699.44;5071118;28;20197;-58
2022/09/09 04:07:11;;;;;;;6.33;5.27;;;17.20;82.10;;;19.75;60.89;100696.78;5070853;28;20270;-57
2022/09/09 04:09:40;;;;;;;7.57;6.20;;;17.20;82.10;;;19.77;60.85;100694.66;5070888;28;20201;-58
2022/09/09 04:12:08;;;;;;;5.93;4.50;;;17.20;82.80;;;19.77;61.17;100702.69;5070445;28;20213;-61
2022/09/09 04:14:35;;;;;;;6.27;5.63;;;17.20;82.10;;;19.80;60.89;100702.19;5085743;28;20222;-58
2022/09/09 04:17:05;;;;;;;6.03;4.97;;;17.20;82.10;;;19.81;60.94;100709.16;5070597;28;20249;-60
2022/09/09 04:19:33;;;;;;;7.20;5.27;;;17.30;82.20;;;19.82;60.84;100710.00;5074583;28;20200;-60
2022/09/09 04:22:00;;;;;;;5.77;5.10;;;17.30;82.30;;;19.80;61.42;100710.19;5074316;28;20201;-58
2022/09/09 04:24:28;;;;;;;8.93;5.33;;;17.30;82.30;;;19.78;61.33;100704.28;5090137;28;20196;-61
2022/09/09 04:26:57;;;;;;;6.77;4.47;;;17.30;82.30;;;19.82;61.43;100710.81;5074525;28;20220;-59
2022/09/09 04:29:24;;;;;;;5.70;4.00;;;17.30;82.30;;;19.89;61.10;100716.00;5074702;28;20584;-59
2022/09/09 04:31:53;;;;;;;4.63;4.20;;;17.30;82.40;;;19.92;60.88;100708.31;5073953;28;20213;-55
2022/09/09 04:34:20;;;;;;;5.10;4.60;;;17.30;82.30;;;19.94;60.80;100718.78;5074371;28;20228;-59
2022/09/09 04:36:48;;;;;;;5.17;4.30;;;17.30;82.30;;;19.96;60.95;100712.16;5074130;28;20185;-58
2022/09/09 04:39:15;;;;;;;7.00;4.37;;;17.40;82.20;;;19.98;60.98;100715.41;5074387;28;20189;-59
2022/09/09 04:41:43;;;;;;;4.37;3.97;;;17.40;82.30;;;19.99;61.06;100717.00;5073546;28;20212;-56
2022/09/09 04:44:12;;;;;;;6.33;4.47;;;17.40;82.20;;;20.02;61.10;100713.06;5074103;28;20219;-58
2022/09/09 04:46:41;;;;;;;7.97;4.47;;;17.40;82.30;;;20.07;60.98;100721.19;5073972;28;20665;-59
2022/09/09 04:49:08;;;;;;;6.30;4.40;;;17.40;82.30;;;20.08;60.76;100720.97;5074111;28;20267;-59
2022/09/09 04:51:41;;;;;;;6.73;4.13;;;17.50;82.40;;;20.09;60.70;100727.91;5073816;28;20185;-59
2022/09/09 04:54:08;;;;;;;6.27;3.90;;;17.50;82.30;;;20.10;60.89;100734.91;5074135;28;20746;-59
2022/09/09 04:56:36;;;;;;;4.57;3.70;;;17.50;82.30;;;20.09;60.71;100735.13;5074071;28;20283;-58
2022/09/09 04:59:04;;;;;;;5.97;4.50;;;17.50;82.30;;;20.11;61.10;100736.50;5073979;28;20196;-58
2022/09/09 05:01:33;;;;;;;5.90;4.00;;;17.60;82.40;;;20.09;60.92;100735.94;5073781;28;20247;-58
2022/09/09 05:04:01;;;;;;;3.87;3.57;;;17.50;82.10;;;20.07;61.16;100740.72;5073863;28;20185;-56
2022/09/09 05:06:32;;;;;;;7.37;4.40;;;17.50;82.10;;;20.06;61.18;100744.41;5073867;28;20682;-59
2022/09/09 05:09:00;;;;;;;9.57;4.23;;;17.60;82.10;;;20.03;60.80;100742.25;5073497;28;20254;-59
2022/09/09 05:11:30;;;;;;;5.70;4.23;;;17.50;82.00;;;20.01;61.16;100747.00;5073461;28;20247;-60
2022/09/09 05:13:57;;;;;;;6.23;4.63;;;17.50;82.10;;;19.98;61.30;100742.13;5073164;28;20201;-58
2022/09/09 05:16:24;;;;;;;4.50;3.87;;;17.50;82.10;;;19.97;61.31;100751.19;5073324;28;20215;-58
2022/09/09 05:18:53;;;;;;;6.47;4.50;;;17.50;82.20;;;19.96;60.81;100749.56;5073804;28;20189;-59
2022/09/09 05:21:24;;;;;;;7.90;4.67;;;17.50;82.20;;;19.97;61.33;100751.19;5073092;28;20193;-61
2022/09/09 05:23:52;;;;;;;6.97;4.23;;;17.50;82.30;;;19.97;60.83;100751.19;5073406;28;20495;-57
2022/09/09 05:26:22;;;;;;;5.90;4.17;;;17.40;82.20;;;19.96;60.81;100749.56;5072316;28;20243;-58
2022/09/09 05:28:49;;;;;;;4.97;3.57;;;17.40;82.10;;;19.98;60.80;100752.81;5072756;28;20223;-59
2022/09/09 05:31:18;;;;;;;4.83;4.33;;;17.50;82.30;;;20.00;61.01;100753.41;5072026;28;20276;-60
2022/09/09 05:33:49;;;;;;;4.87;3.93;;;17.40;82.20;;;19.99;60.86;100764.31;5072715;28;20212;-59
2022/09/09 05:36:20;;;;;;;7.00;3.90;;;17.40;82.00;;;19.94;61.24;100759.69;5072602;28;20193;-60
2022/09/09 05:38:49;;;;;;;4.73;4.20;;;17.40;82.10;;;19.92;60.75;100756.41;5072778;28;20585;-58
2022/09/09 05:41:17;;;;;;;5.93;4.50;;;17.40;82.10;;;19.93;61.29;100763.41;5072237;28;20654;-58
2022/09/09 05:43:46;;;;;;;6.97;4.33;;;17.40;82.20;;;19.91;60.95;100762.81;5072058;28;20239;-57
2022/09/09 05:46:17;;;;;;;7.10;4.60;;;17.40;82.20;;;19.90;61.22;100768.38;5072718;28;20189;-58
2022/09/09 05:48:47;;;;;;;8.20;4.93;;;17.40;82.20;;;19.88;61.42;100765.97;5072889;28;20260;-62
2022/09/09 05:51:18;;;;;;;5.40;4.90;;;17.40;82.20;;;19.89;61.01;100770.28;5072124;28;20630;-60
2022/09/09 05:53:46;;;;;;;5.27;4.00;;;17.40;82.20;;;19.94;60.88;100767.72;5072299;28;20209;-59
2022/09/09 05:56:20;;;;;;;4.73;4.20;;;17.40;82.30;;;20.00;60.91;100772.09;5072803;28;20253;-61
2022/09/09 05:58:47;;;;;;;6.03;4.20;;;17.40;82.40;;;20.03;61.19;100763.63;5072489;28;20803;-59
2022/09/09 06:01:17;;;;;;;6.23;4.80;;;17.40;82.20;;;20.06;61.00;100771.16;5072098;28;20602;-58
2022/09/09 06:03:47;;;;;;;6.10;5.03;;;17.50;82.10;;;20.05;60.49;100764.19;5088173;28;20205;-61
2022/09/09 06:06:22;;;;;;;6.00;4.70;;;17.50;81.90;;;20.04;60.87;100767.13;5072488;28;20592;-61
2022/09/09 06:08:52;;;;;;;5.67;4.23;;;17.50;81.90;;;20.02;60.47;100770.00;5072741;28;20755;-59
2022/09/09 06:11:22;;;;;;;4.83;4.33;;;17.50;81.80;;;20.01;60.87;100768.38;5072203;28;20197;-59
2022/09/09 06:13:53;;;;;;;6.93;4.10;;;17.50;81.90;;;20.05;60.80;100768.72;5072463;28;20181;-59
2022/09/09 06:16:24;;;;;;;5.97;4.27;;;17.50;82.00;;;20.13;60.71;100768.38;5072180;28;20253;-60
2022/09/09 06:18:52;;;;;;;7.33;4.60;;;17.50;82.10;;;20.20;60.55;100771.72;5072275;28;20185;-60
2022/09/09 06:21:24;;;;;;;4.43;3.77;;;17.60;81.90;;;20.27;60.27;100772.41;5072364;28;20193;-60
2022/09/09 06:23:53;;;;;;;4.53;4.10;;;17.60;82.00;;;20.36;60.36;100764.81;5052208;28;20257;-59
2022/09/09 06:26:29;;;;;;;4.43;4.00;;;17.60;81.80;;;20.43;59.64;100762.81;5052366;28;20193;-59
2022/09/09 06:28:57;;;;;;;7.57;4.13;;;17.70;81.50;;;20.53;59.87;100765.69;5052365;28;20214;-58
2022/09/09 06:31:29;;;;;;;4.50;4.10;;;17.80;81.70;;;20.62;59.56;100761.59;5053867;28;20198;-60
2022/09/09 06:33:58;;;;;;;5.87;3.77;;;17.90;81.50;;;20.70;58.98;100766.56;5052036;28;20182;-58
2022/09/09 06:36:30;;;;;;;6.67;4.43;;;17.90;80.90;;;20.75;59.16;100767.44;5051923;28;20204;-60
2022/09/09 06:38:59;;;;;;;7.03;4.03;;;18.00;80.60;;;20.81;59.09;100773.72;5051982;28;20178;-57
2022/09/09 06:41:30;;;;;;;4.57;4.27;;;18.10;80.40;;;20.86;58.74;100765.78;5049943;28;20248;-59
2022/09/09 06:43:57;;;;;;;5.23;3.90;;;18.10;79.80;;;20.83;58.33;100764.38;5052195;28;20182;-58
2022/09/09 06:46:27;;;;;;;4.93;3.60;;;18.20;79.40;;;20.82;58.04;100770.00;5051471;28;20186;-59
2022/09/09 06:48:57;;;;;;;4.70;3.77;;;18.20;79.20;;;20.87;58.67;100772.75;5052033;28;20889;-58
2022/09/09 06:51:28;;;;;;;6.17;4.27;;;18.30;79.60;;;20.91;58.37;100769.34;5051456;28;20205;-62
2022/09/09 06:53:57;;;;;;;4.43;3.80;;;18.30;79.10;;;20.89;57.83;100765.28;5051650;28;20194;-61
2022/09/09 06:56:28;;;;;;;8.03;4.57;;;18.30;78.80;;;20.93;58.26;100766.44;5051994;28;20208;-58
2022/09/09 06:59:03;;;;;;;6.17;4.30;;;18.30;78.70;;;20.93;58.12;100772.59;5052176;28;20239;-60
2022/09/09 07:01:34;;;;;;;4.93;3.83;;;18.40;79.20;;;20.98;58.26;100769.19;5051158;28;20197;-58
2022/09/09 07:04:04;;;;;;;3.80;3.40;;;18.40;78.70;;;21.09;57.79;100764.84;5051612;28;20205;-58
2022/09/09 07:06:35;;;;;;;3.83;3.53;;;18.50;78.90;;;21.31;57.69;100769.25;5051404;28;20201;-58
2022/09/09 07:09:05;;;;;;;5.13;3.80;;;18.50;79.30;;;21.68;57.08;100768.72;5051709;28;20256;-59
2022/09/09 07:11:37;;;;;;;5.27;4.00;;;18.70;79.00;;;22.08;56.09;100762.03;5051529;28;20182;-59
2022/09/09 07:14:05;;;;;;;4.40;3.70;;;18.90;78.30;;;22.55;54.73;100758.81;5051924;28;20194;-59
2022/09/09 07:16:33;;;;;;;4.13;3.33;;;19.20;77.10;;;23.15;54.15;100753.25;5051364;28;20193;-60
2022/09/09 07:19:02;;;;;;;3.73;3.20;;;19.60;77.30;;;23.91;53.41;100763.44;5050350;28;20650;-57
2022/09/09 07:21:33;;;;;;;5.33;3.20;;;20.10;77.50;;;24.80;51.11;100765.91;5045051;28;20193;-59
2022/09/09 07:24:01;;;;;;;3.40;3.10;;;20.70;75.60;;;25.47;48.43;100771.06;5051682;28;20186;-60
2022/09/09 07:26:30;;;;;;;5.77;3.53;;;21.30;71.70;;;25.99;47.33;100774.19;5050467;28;20198;-60
2022/09/09 07:28:58;;;;;;;5.50;2.53;;;21.80;70.10;;;26.56;45.82;100778.25;5049831;28;20627;-57
2022/09/09 07:31:30;;;;;;;5.70;2.93;;;22.40;68.70;;;27.30;45.51;100767.19;5034348;28;20198;-62
2022/09/09 07:33:59;;;;;;;5.30;3.10;;;22.90;68.40;;;27.97;42.99;100777.91;5043996;28;20193;-59
2022/09/09 07:36:29;;;;;;;5.50;2.83;;;23.40;64.50;;;28.56;41.60;100784.72;5051224;28;20216;-60
2022/09/09 07:39:04;;;;;;;3.97;3.00;;;24.00;63.20;;;28.93;40.04;100779.31;5049681;28;20192;-59
2022/09/09 07:41:35;;;;;;;4.13;2.73;;;24.40;60.10;;;29.20;39.37;100782.16;5031846;28;20207;-61
2022/09/09 07:44:08;;;;;;;3.17;2.87;;;24.90;58.90;;;29.33;38.34;100778.69;5066580;28;20182;-57
2022/09/09 07:46:36;;;;;;;4.13;2.50;;;25.10;57.20;;;29.54;39.40;100786.47;5050728;28;20189;-59
2022/09/09 07:49:04;;;;;;;3.03;2.07;;;25.40;58.00;;;30.08;39.09;100781.09;5050418;28;20244;-57
2022/09/09 07:51:34;;;;;;;2.70;2.30;;;25.70;58.40;;;30.74;37.38;100785.91;5034094;28;20652;-58
2022/09/09 07:54:05;;;;;;;3.47;3.17;;;26.10;57.40;;;31.32;35.30;100775.00;5038278;28;20201;-58
2022/09/09 07:56:33;;;;;;;4.77;2.80;;;26.50;54.40;;;31.66;35.03;100786.09;5030870;28;20277;-56
2022/09/09 07:59:01;;;;;;;4.23;2.23;;;26.90;54.50;;;32.40;34.97;100786.19;5030421;28;20190;-58
2022/09/09 08:01:31;;;;;;;2.30;2.10;;;27.30;54.50;;;33.14;33.44;100787.66;5030055;28;20198;-57
2022/09/09 08:04:03;;;;;;;4.83;2.50;;;27.70;53.30;;;33.37;32.86;100780.88;5030086;28;20206;-59
2022/09/09 08:06:34;;;;;;;4.00;2.40;;;28.10;51.50;;;33.11;33.23;100788.31;5030950;28;20266;-58
2022/09/09 08:09:04;;;;;;;4.30;2.67;;;28.30;50.70;;;32.52;32.45;100776.25;5030336;28;20245;-60
2022/09/09 08:11:33;;;;;;;4.00;2.97;;;28.20;48.40;;;32.41;32.67;100779.59;5046733;28;20255;-61
2022/09/09 08:14:07;;;;;;;2.63;2.17;;;28.10;48.90;;;32.13;32.60;100776.34;5041099;28;20578;-58
2022/09/09 08:16:39;;;;;;;4.20;2.37;;;27.90;48.30;;;31.52;34.25;100782.69;5035859;28;20213;-58
2022/09/09 08:19:07;;;;;;;5.17;2.97;;;27.80;48.70;;;30.77;35.02;100786.13;5050382;28;20248;-58
2022/09/09 08:21:37;;;;;;;3.13;2.30;;;27.60;48.80;;;30.38;35.12;100788.63;5049647;28;20186;-60
2022/09/09 08:24:08;;;;;;;2.63;2.20;;;27.20;49.80;;;29.73;36.61;100779.06;5045302;28;20252;-58
2022/09/09 08:26:38;;;;;;;3.50;2.40;;;26.80;50.30;;;29.32;37.05;100793.34;5036015;28;20655;-57
2022/09/09 08:29:08;;;;;;;5.60;2.60;;;26.40;51.40;;;29.14;37.98;100783.34;5037166;28;20207;-58
2022/09/09 08:31:38;;;;;;;3.77;2.17;;;26.20;52.30;;;29.46;37.61;100788.75;5029742;28;20671;-60
2022/09/09 08:34:07;;;;;;;3.93;1.90;;;26.00;53.50;;;29.78;37.03;100798.00;5030912;28;20191;-59
2022/09/09 08:36:37;;;;;;;4.23;2.30;;;26.00;53.20;;;29.78;36.87;100800.72;5041960;28;20193;-60
2022/09/09 08:39:10;;;;;;;4.73;2.17;;;26.10;53.30;;;29.58;37.11;100796.41;5041173;28;20269;-58
2022/09/09 08:42:17;;;;;;;3.67;2.43;;;26.10;53.00;;;29.35;37.67;100789.25;5039264;28;20823;-59
2022/09/09 08:45:20;;;;;;;3.70;2.37;;;26.00;53.10;;;28.89;38.32;100791.03;5029847;28;20600;-60
2022/09/09 08:48:05;;;;;;;3.00;2.23;;;25.90;53.60;;;28.57;38.92;100802.63;5030886;28;20203;-59
2022/09/09 08:50:38;;;;;;;4.13;2.57;;;25.70;54.20;;;28.00;39.94;100798.97;5031484;28;20605;-57
2022/09/09 08:53:16;;;;;;;3.53;2.50;;;25.40;54.50;;;27.47;40.98;100800.06;5049790;28;20210;-59
2022/09/09 08:55:48;;;;;;;3.63;2.23;;;25.10;55.20;;;27.07;42.04;100800.38;5048976;28;20189;-59
2022/09/09 08:58:19;;;;;;;2.23;2.00;;;24.70;56.20;;;26.70;42.37;100806.25;5044791;28;20186;-61
2022/09/09 09:01:19;;;;;;;5.13;2.40;;;24.40;57.00;;;26.29;43.47;100804.88;5037452;28;20675;-58
2022/09/09 09:04:00;;;;;;;4.77;2.53;;;24.10;58.10;;;26.14;44.73;100805.72;5040537;28;20228;-58
2022/09/09 09:06:44;;;;;;;3.00;2.03;;;23.80;59.10;;;25.99;44.77;100805.75;5033033;28;20252;-60
2022/09/09 09:09:23;;;;;;;4.97;2.30;;;23.60;59.70;;;25.83;45.18;100806.88;5044351;28;20210;-58
2022/09/09 09:12:00;;;;;;;3.27;1.87;;;23.40;60.00;;;25.63;45.64;100806.91;5052359;28;20682;-59
2022/09/09 09:14:31;;;;;;;3.30;1.90;;;23.20;60.50;;;25.76;45.33;100804.47;5047306;28;20573;-60
2022/09/09 09:17:21;;;;;;;2.40;1.87;;;23.10;61.10;;;25.84;44.68;100803.09;5036309;28;20605;-59
2022/09/09 09:19:49;;;;;;;4.30;1.67;;;23.00;60.70;;;25.67;44.82;100808.81;5048884;28;20206;-56
2022/09/09 09:22:22;;;;;;;2.40;2.17;;;23.00;60.40;;;25.58;44.66;100805.03;5046584;28;20263;-55
2022/09/09 09:24:54;;;;;;;3.27;1.63;;;23.00;60.50;;;25.70;45.04;100807.47;5047995;28;20215;-59
2022/09/09 09:27:32;;;;;;;2.37;1.80;;;22.90;61.00;;;25.78;44.88;100809.59;5047830;28;20225;-57
2022/09/09 09:30:12;;;;;;;3.40;1.97;;;22.90;61.30;;;26.31;44.07;100806.22;5050202;28;20249;-58
2022/09/09 09:33:08;;;;;;;4.17;1.90;;;23.10;60.70;;;26.44;43.44;100802.91;5044905;28;20570;-58
2022/09/09 09:35:36;;;;;;;3.50;2.10;;;23.30;60.20;;;27.56;41.87;100797.53;5047760;28;20268;-61
2022/09/09 09:38:18;;;;;;;3.07;1.90;;;23.60;60.30;;;29.15;39.39;100803.91;5050321;28;20258;-62
2022/09/09 09:41:06;;;;;;;4.87;1.53;;;24.20;59.60;;;30.00;36.66;100803.53;5049416;28;20197;-61
2022/09/09 09:43:37;;;;;;;1.83;1.30;;;24.90;57.20;;;30.99;35.42;100792.72;5046479;28;20250;-60
2022/09/09 09:46:17;;;;;;;2.30;1.50;;;25.60;55.70;;;31.19;34.96;100803.88;5046473;28;20201;-61
2022/09/09 09:48:55;;;;;;;1.90;1.73;;;26.10;53.80;;;30.72;35.40;100799.81;5051577;28;20221;-60
2022/09/09 09:51:25;;;;;;;3.27;1.63;;;26.50;52.60;;;29.95;35.52;100806.34;5049678;28;20636;-60
2022/09/09 09:53:53;;;;;;;2.03;1.50;;;26.50;51.40;;;29.14;36.74;100806.94;5047158;28;20209;-60
2022/09/09 09:56:28;;;;;;;3.43;1.67;;;26.30;51.10;;;28.46;37.46;100809.25;5046497;28;20609;-59
2022/09/09 09:58:59;;;;;;;3.20;1.70;;;25.90;51.40;;;27.94;38.85;100800.13;5048595;28;20289;-60
2022/09/09 10:01:36;;;;;;;2.03;1.50;;;25.60;52.10;;;27.47;40.35;100803.59;5046029;28;20252;-63
2022/09/09 10:04:18;;;;;;;3.50;1.77;;;25.20;53.90;;;27.88;40.25;100803.19;5047707;28;20217;-59
2022/09/09 10:06:46;;;;;;;3.60;1.90;;;25.00;55.40;;;28.90;38.73;100807.03;5047571;28;20226;-58
2022/09/09 10:09:25;;;;;;;3.33;1.67;;;25.10;56.20;;;29.81;37.71;100794.69;5048091;28;20217;-62
2022/09/09 10:12:05;;;;;;;2.57;2.23;;;25.40;55.90;;;30.69;36.58;100800.44;5048823;28;20279;-58
2022/09/09 10:14:48;;;;;;;2.67;1.50;;;25.80;55.50;;;30.91;35.60;100812.47;5049870;28;20185;-59
2022/09/09 10:17:29;;;;;;;3.87;1.67;;;26.30;54.70;;;30.34;35.22;100814.00;5050964;28;20205;-60
2022/09/09 10:20:19;;;;;;;2.30;1.70;;;26.40;52.20;;;29.28;36.89;100803.19;5049853;28;20194;-59
2022/09/09 10:22:58;;;;;;;2.00;1.90;;;26.30;51.70;;;28.86;37.59;100806.00;5049584;28;20226;-62
2022/09/09 10:25:47;;;;;;;4.10;2.33;;;26.00;52.70;;;28.76;38.29;100795.31;5027944;28;20691;-59
2022/09/09 10:28:52;;;;;;;4.17;2.10;;;25.80;53.00;;;29.05;37.89;100808.72;5045896;28;20210;-59
2022/09/09 10:31:32;;;;;;;3.80;1.60;;;25.80;53.40;;;29.22;37.41;100801.66;5045685;28;20255;-59
2022/09/09 10:34:20;;;;;;;4.87;2.10;;;25.80;53.00;;;29.03;37.56;100800.84;5049511;28;20686;-60